sensor_id;sensor_type;location;lat;lon;timestamp;temperature;humidity
67054;SHT31;53960;51.826;5.850;2023-12-22T00:01:06;7.17;95.44
67054;SHT31;53960;51.826;5.850;2023-12-22T00:03:31;7.23;95.66
67054;SHT31;53960;51.826;5.850;2023-12-22T00:05:57;7.27;95.57
67054;SHT31;53960;51.826;5.850;2023-12-22T00:08:22;7.27;95.57
67054;SHT31;53960;51.826;5.850;2023-12-22T00:10:49;7.24;95.19
67054;SHT31;53960;51.826;5.850;2023-12-22T00:13:14;7.30;94.01
67054;SHT31;53960;51.826;5.850;2023-12-22T00:15:39;7.28;93.69
67054;SHT31;53960;51.826;5.850;2023-12-22T00:18:05;7.26;93.77
67054;SHT31;53960;51.826;5.850;2023-12-22T00:20:30;7.26;93.82
67054;SHT31;53960;51.826;5.850;2023-12-22T00:22:55;7.20;92.83
67054;SHT31;53960;51.826;5.850;2023-12-22T00:25:21;7.20;93.13
67054;SHT31;53960;51.826;5.850;2023-12-22T00:27:46;7.26;92.71
67054;SHT31;53960;51.826;5.850;2023-12-22T00:30:11;7.21;92.55
67054;SHT31;53960;51.826;5.850;2023-12-22T00:32:37;7.18;92.59
67054;SHT31;53960;51.826;5.850;2023-12-22T00:35:02;7.24;91.28
67054;SHT31;53960;51.826;5.850;2023-12-22T00:37:29;7.27;91.57
67054;SHT31;53960;51.826;5.850;2023-12-22T00:39:55;7.23;92.17
67054;SHT31;53960;51.826;5.850;2023-12-22T00:42:20;7.31;91.79
67054;SHT31;53960;51.826;5.850;2023-12-22T00:44:45;7.32;91.45
67054;SHT31;53960;51.826;5.850;2023-12-22T00:47:11;7.37;91.75
67054;SHT31;53960;51.826;5.850;2023-12-22T00:49:36;7.17;91.98
67054;SHT31;53960;51.826;5.850;2023-12-22T00:52:01;6.93;92.20
67054;SHT31;53960;51.826;5.850;2023-12-22T00:54:27;6.76;92.86
67054;SHT31;53960;51.826;5.850;2023-12-22T00:56:55;6.59;92.70
67054;SHT31;53960;51.826;5.850;2023-12-22T00:59:20;6.41;93.67
67054;SHT31;53960;51.826;5.850;2023-12-22T01:01:45;6.31;92.68
67054;SHT31;53960;51.826;5.850;2023-12-22T01:04:11;6.24;93.47
67054;SHT31;53960;51.826;5.850;2023-12-22T01:06:37;6.28;93.62
67054;SHT31;53960;51.826;5.850;2023-12-22T01:09:04;6.31;93.90
67054;SHT31;53960;51.826;5.850;2023-12-22T01:11:29;6.35;93.22
67054;SHT31;53960;51.826;5.850;2023-12-22T01:13:54;6.38;93.14
67054;SHT31;53960;51.826;5.850;2023-12-22T01:16:19;6.35;93.78
67054;SHT31;53960;51.826;5.850;2023-12-22T01:18:47;6.31;93.97
67054;SHT31;53960;51.826;5.850;2023-12-22T01:21:12;6.29;94.69
67054;SHT31;53960;51.826;5.850;2023-12-22T01:23:38;6.37;95.18
67054;SHT31;53960;51.826;5.850;2023-12-22T01:26:03;6.38;95.24
67054;SHT31;53960;51.826;5.850;2023-12-22T01:28:28;6.34;95.34
67054;SHT31;53960;51.826;5.850;2023-12-22T01:30:54;6.25;95.61
67054;SHT31;53960;51.826;5.850;2023-12-22T01:33:19;6.31;96.16
67054;SHT31;53960;51.826;5.850;2023-12-22T01:35:44;6.34;95.64
67054;SHT31;53960;51.826;5.850;2023-12-22T01:38:10;6.25;96.51
67054;SHT31;53960;51.826;5.850;2023-12-22T01:40:35;6.31;96.40
67054;SHT31;53960;51.826;5.850;2023-12-22T01:43:01;6.31;96.90
67054;SHT31;53960;51.826;5.850;2023-12-22T01:45:26;6.28;96.83
67054;SHT31;53960;51.826;5.850;2023-12-22T01:47:52;6.24;96.26
67054;SHT31;53960;51.826;5.850;2023-12-22T01:50:17;6.16;96.68
67054;SHT31;53960;51.826;5.850;2023-12-22T01:52:44;6.22;96.73
67054;SHT31;53960;51.826;5.850;2023-12-22T01:55:10;6.22;96.84
67054;SHT31;53960;51.826;5.850;2023-12-22T01:57:37;6.35;96.08
67054;SHT31;53960;51.826;5.850;2023-12-22T02:00:03;6.34;95.97
67054;SHT31;53960;51.826;5.850;2023-12-22T02:02:30;6.29;96.30
67054;SHT31;53960;51.826;5.850;2023-12-22T02:04:57;6.32;96.63
67054;SHT31;53960;51.826;5.850;2023-12-22T02:07:22;6.44;96.53
67054;SHT31;53960;51.826;5.850;2023-12-22T02:09:47;6.45;96.72
67054;SHT31;53960;51.826;5.850;2023-12-22T02:12:13;6.39;97.18
67054;SHT31;53960;51.826;5.850;2023-12-22T02:14:38;6.46;97.48
67054;SHT31;53960;51.826;5.850;2023-12-22T02:19:48;6.49;97.00
67054;SHT31;53960;51.826;5.850;2023-12-22T02:22:14;6.50;97.20
67054;SHT31;53960;51.826;5.850;2023-12-22T02:24:40;6.50;97.29
67054;SHT31;53960;51.826;5.850;2023-12-22T02:27:18;6.61;97.12
67054;SHT31;53960;51.826;5.850;2023-12-22T02:29:49;6.62;96.92
67054;SHT31;53960;51.826;5.850;2023-12-22T02:32:44;6.66;96.91
67054;SHT31;53960;51.826;5.850;2023-12-22T02:35:21;6.68;96.82
67054;SHT31;53960;51.826;5.850;2023-12-22T02:37:49;6.72;96.78
67054;SHT31;53960;51.826;5.850;2023-12-22T02:40:15;6.77;96.30
67054;SHT31;53960;51.826;5.850;2023-12-22T02:42:41;6.72;96.56
67054;SHT31;53960;51.826;5.850;2023-12-22T02:45:13;6.71;96.80
67054;SHT31;53960;51.826;5.850;2023-12-22T02:47:39;6.66;96.86
67054;SHT31;53960;51.826;5.850;2023-12-22T02:50:04;6.73;96.88
67054;SHT31;53960;51.826;5.850;2023-12-22T02:52:30;6.64;96.97
67054;SHT31;53960;51.826;5.850;2023-12-22T02:54:57;6.66;96.75
67054;SHT31;53960;51.826;5.850;2023-12-22T02:57:22;6.58;97.13
67054;SHT31;53960;51.826;5.850;2023-12-22T02:59:48;6.68;96.59
67054;SHT31;53960;51.826;5.850;2023-12-22T03:02:13;6.61;96.96
67054;SHT31;53960;51.826;5.850;2023-12-22T03:04:38;6.66;96.36
67054;SHT31;53960;51.826;5.850;2023-12-22T03:07:04;6.66;95.99
67054;SHT31;53960;51.826;5.850;2023-12-22T03:09:29;6.64;96.10
67054;SHT31;53960;51.826;5.850;2023-12-22T03:11:55;6.61;95.50
67054;SHT31;53960;51.826;5.850;2023-12-22T03:14:22;6.65;95.30
67054;SHT31;53960;51.826;5.850;2023-12-22T03:16:47;6.61;95.42
67054;SHT31;53960;51.826;5.850;2023-12-22T03:19:13;6.65;95.05
67054;SHT31;53960;51.826;5.850;2023-12-22T03:21:38;6.72;94.70
67054;SHT31;53960;51.826;5.850;2023-12-22T03:24:03;6.77;93.77
67054;SHT31;53960;51.826;5.850;2023-12-22T03:26:29;6.83;93.40
67054;SHT31;53960;51.826;5.850;2023-12-22T03:28:54;6.86;92.42
67054;SHT31;53960;51.826;5.850;2023-12-22T03:31:19;6.89;92.45
67054;SHT31;53960;51.826;5.850;2023-12-22T03:33:45;7.06;91.51
67054;SHT31;53960;51.826;5.850;2023-12-22T03:36:10;7.08;91.76
67054;SHT31;53960;51.826;5.850;2023-12-22T03:38:35;7.13;91.30
67054;SHT31;53960;51.826;5.850;2023-12-22T03:41:01;7.21;91.67
67054;SHT31;53960;51.826;5.850;2023-12-22T03:43:26;7.28;91.59
67054;SHT31;53960;51.826;5.850;2023-12-22T03:45:51;7.27;91.56
67054;SHT31;53960;51.826;5.850;2023-12-22T03:48:17;7.35;91.29
67054;SHT31;53960;51.826;5.850;2023-12-22T03:50:42;7.35;91.30
67054;SHT31;53960;51.826;5.850;2023-12-22T03:53:08;7.40;91.32
67054;SHT31;53960;51.826;5.850;2023-12-22T03:55:33;7.47;91.13
67054;SHT31;53960;51.826;5.850;2023-12-22T03:57:58;7.48;91.30
67054;SHT31;53960;51.826;5.850;2023-12-22T04:00:24;7.55;90.69
67054;SHT31;53960;51.826;5.850;2023-12-22T04:02:49;7.45;91.22
67054;SHT31;53960;51.826;5.850;2023-12-22T04:05:14;7.55;91.24
67054;SHT31;53960;51.826;5.850;2023-12-22T04:07:39;7.48;90.82
67054;SHT31;53960;51.826;5.850;2023-12-22T04:10:05;7.48;91.23
67054;SHT31;53960;51.826;5.850;2023-12-22T04:12:31;7.57;91.22
67054;SHT31;53960;51.826;5.850;2023-12-22T04:14:56;7.59;91.20
67054;SHT31;53960;51.826;5.850;2023-12-22T04:17:21;7.57;91.05
67054;SHT31;53960;51.826;5.850;2023-12-22T04:19:47;7.64;90.85
67054;SHT31;53960;51.826;5.850;2023-12-22T04:22:12;7.62;91.46
67054;SHT31;53960;51.826;5.850;2023-12-22T04:24:37;7.59;91.72
67054;SHT31;53960;51.826;5.850;2023-12-22T04:27:03;7.16;92.42
67054;SHT31;53960;51.826;5.850;2023-12-22T04:29:28;6.73;93.45
67054;SHT31;53960;51.826;5.850;2023-12-22T04:31:53;6.58;94.58
67054;SHT31;53960;51.826;5.850;2023-12-22T04:34:19;6.46;95.38
67054;SHT31;53960;51.826;5.850;2023-12-22T04:36:44;6.34;96.20
67054;SHT31;53960;51.826;5.850;2023-12-22T04:39:09;6.42;96.41
67054;SHT31;53960;51.826;5.850;2023-12-22T04:41:35;6.41;96.93
67054;SHT31;53960;51.826;5.850;2023-12-22T04:44:00;6.39;96.67
67054;SHT31;53960;51.826;5.850;2023-12-22T04:46:29;6.34;97.38
67054;SHT31;53960;51.826;5.850;2023-12-22T04:48:55;6.37;97.49
67054;SHT31;53960;51.826;5.850;2023-12-22T04:51:20;6.45;97.13
67054;SHT31;53960;51.826;5.850;2023-12-22T04:53:46;6.46;96.76
67054;SHT31;53960;51.826;5.850;2023-12-22T04:56:11;6.49;96.79
67054;SHT31;53960;51.826;5.850;2023-12-22T04:58:37;6.46;96.65
67054;SHT31;53960;51.826;5.850;2023-12-22T05:01:02;6.55;96.33
67054;SHT31;53960;51.826;5.850;2023-12-22T05:03:27;6.48;96.65
67054;SHT31;53960;51.826;5.850;2023-12-22T05:05:53;6.41;96.99
67054;SHT31;53960;51.826;5.850;2023-12-22T05:08:18;6.41;97.13
67054;SHT31;53960;51.826;5.850;2023-12-22T05:10:44;6.45;96.90
67054;SHT31;53960;51.826;5.850;2023-12-22T05:13:09;6.52;96.84
67054;SHT31;53960;51.826;5.850;2023-12-22T05:15:34;6.69;95.96
67054;SHT31;53960;51.826;5.850;2023-12-22T05:17:59;6.76;95.29
67054;SHT31;53960;51.826;5.850;2023-12-22T05:20:25;7.03;94.22
67054;SHT31;53960;51.826;5.850;2023-12-22T05:22:50;6.96;94.50
67054;SHT31;53960;51.826;5.850;2023-12-22T05:25:16;7.04;94.43
67054;SHT31;53960;51.826;5.850;2023-12-22T05:27:41;7.13;93.65
67054;SHT31;53960;51.826;5.850;2023-12-22T05:30:08;7.11;93.64
67054;SHT31;53960;51.826;5.850;2023-12-22T05:32:34;7.18;93.54
67054;SHT31;53960;51.826;5.850;2023-12-22T05:34:59;7.18;93.60
67054;SHT31;53960;51.826;5.850;2023-12-22T05:37:24;7.37;92.80
67054;SHT31;53960;51.826;5.850;2023-12-22T05:39:50;7.50;91.73
67054;SHT31;53960;51.826;5.850;2023-12-22T05:42:15;7.51;92.19
67054;SHT31;53960;51.826;5.850;2023-12-22T05:44:40;7.52;92.32
67054;SHT31;53960;51.826;5.850;2023-12-22T05:47:06;7.58;91.27
67054;SHT31;53960;51.826;5.850;2023-12-22T05:49:31;7.64;91.57
67054;SHT31;53960;51.826;5.850;2023-12-22T05:51:56;7.74;90.49
67054;SHT31;53960;51.826;5.850;2023-12-22T05:54:22;7.78;90.24
67054;SHT31;53960;51.826;5.850;2023-12-22T05:56:48;7.81;90.27
67054;SHT31;53960;51.826;5.850;2023-12-22T05:59:13;7.86;89.62
67054;SHT31;53960;51.826;5.850;2023-12-22T06:01:39;7.81;90.36
67054;SHT31;53960;51.826;5.850;2023-12-22T06:04:04;7.89;90.40
67054;SHT31;53960;51.826;5.850;2023-12-22T06:06:30;7.88;90.88
67054;SHT31;53960;51.826;5.850;2023-12-22T06:08:56;7.95;90.65
67054;SHT31;53960;51.826;5.850;2023-12-22T06:11:21;7.95;90.93
67054;SHT31;53960;51.826;5.850;2023-12-22T06:13:47;8.06;90.90
67054;SHT31;53960;51.826;5.850;2023-12-22T06:16:13;8.03;91.20
67054;SHT31;53960;51.826;5.850;2023-12-22T06:18:43;8.00;91.91
67054;SHT31;53960;51.826;5.850;2023-12-22T06:21:09;8.03;90.04
67054;SHT31;53960;51.826;5.850;2023-12-22T06:23:35;8.12;89.73
67054;SHT31;53960;51.826;5.850;2023-12-22T06:26:01;8.09;89.19
67054;SHT31;53960;51.826;5.850;2023-12-22T06:28:27;8.07;89.21
67054;SHT31;53960;51.826;5.850;2023-12-22T06:30:53;8.07;89.63
67054;SHT31;53960;51.826;5.850;2023-12-22T06:33:19;8.00;89.87
67054;SHT31;53960;51.826;5.850;2023-12-22T06:35:44;8.07;90.18
67054;SHT31;53960;51.826;5.850;2023-12-22T06:38:10;8.03;90.70
67054;SHT31;53960;51.826;5.850;2023-12-22T06:40:36;8.14;90.53
67054;SHT31;53960;51.826;5.850;2023-12-22T06:43:02;8.09;91.36
67054;SHT31;53960;51.826;5.850;2023-12-22T06:45:27;8.20;91.56
67054;SHT31;53960;51.826;5.850;2023-12-22T06:47:53;8.10;92.20
67054;SHT31;53960;51.826;5.850;2023-12-22T06:50:18;8.13;92.41
67054;SHT31;53960;51.826;5.850;2023-12-22T06:52:43;8.16;92.60
67054;SHT31;53960;51.826;5.850;2023-12-22T06:55:09;8.26;92.63
67054;SHT31;53960;51.826;5.850;2023-12-22T06:57:34;8.26;92.35
67054;SHT31;53960;51.826;5.850;2023-12-22T06:59:59;8.30;92.17
67054;SHT31;53960;51.826;5.850;2023-12-22T07:02:25;8.34;91.39
67054;SHT31;53960;51.826;5.850;2023-12-22T07:07:51;8.37;91.06
67054;SHT31;53960;51.826;5.850;2023-12-22T07:10:16;8.30;91.23
67054;SHT31;53960;51.826;5.850;2023-12-22T07:12:42;8.29;91.81
67054;SHT31;53960;51.826;5.850;2023-12-22T07:15:08;8.36;91.84
67054;SHT31;53960;51.826;5.850;2023-12-22T07:17:33;8.30;92.88
67054;SHT31;53960;51.826;5.850;2023-12-22T07:19:59;8.38;92.93
67054;SHT31;53960;51.826;5.850;2023-12-22T07:22:24;8.37;93.53
67054;SHT31;53960;51.826;5.850;2023-12-22T07:24:49;8.34;93.87
67054;SHT31;53960;51.826;5.850;2023-12-22T07:27:17;8.47;93.72
67054;SHT31;53960;51.826;5.850;2023-12-22T07:29:42;8.38;93.92
67054;SHT31;53960;51.826;5.850;2023-12-22T07:32:07;8.43;94.18
67054;SHT31;53960;51.826;5.850;2023-12-22T07:34:33;8.43;94.08
67054;SHT31;53960;51.826;5.850;2023-12-22T07:36:58;8.48;93.85
67054;SHT31;53960;51.826;5.850;2023-12-22T07:39:23;8.55;93.71
67054;SHT31;53960;51.826;5.850;2023-12-22T07:41:49;8.63;93.35
67054;SHT31;53960;51.826;5.850;2023-12-22T07:44:14;8.63;93.08
67054;SHT31;53960;51.826;5.850;2023-12-22T07:46:40;8.67;93.22
67054;SHT31;53960;51.826;5.850;2023-12-22T07:49:06;8.65;93.31
67054;SHT31;53960;51.826;5.850;2023-12-22T07:51:31;8.64;93.47
67054;SHT31;53960;51.826;5.850;2023-12-22T07:53:57;8.67;93.19
67054;SHT31;53960;51.826;5.850;2023-12-22T07:56:22;8.69;92.99
67054;SHT31;53960;51.826;5.850;2023-12-22T07:58:48;8.77;92.73
67054;SHT31;53960;51.826;5.850;2023-12-22T08:01:13;8.78;92.58
67054;SHT31;53960;51.826;5.850;2023-12-22T08:03:40;8.82;92.69
67054;SHT31;53960;51.826;5.850;2023-12-22T08:06:06;8.82;93.17
67054;SHT31;53960;51.826;5.850;2023-12-22T08:08:31;8.74;93.49
67054;SHT31;53960;51.826;5.850;2023-12-22T08:10:58;8.64;94.35
67054;SHT31;53960;51.826;5.850;2023-12-22T08:13:24;8.55;94.14
67054;SHT31;53960;51.826;5.850;2023-12-22T08:15:50;8.57;94.35
67054;SHT31;53960;51.826;5.850;2023-12-22T08:18:15;8.44;94.89
67054;SHT31;53960;51.826;5.850;2023-12-22T08:20:41;8.48;95.08
67054;SHT31;53960;51.826;5.850;2023-12-22T08:23:06;8.41;95.22
67054;SHT31;53960;51.826;5.850;2023-12-22T08:25:31;8.43;95.36
67054;SHT31;53960;51.826;5.850;2023-12-22T08:27:57;8.44;95.68
67054;SHT31;53960;51.826;5.850;2023-12-22T08:30:22;8.50;95.54
67054;SHT31;53960;51.826;5.850;2023-12-22T08:32:49;8.57;95.37
67054;SHT31;53960;51.826;5.850;2023-12-22T08:35:15;8.74;94.58
67054;SHT31;53960;51.826;5.850;2023-12-22T08:37:41;8.69;94.92
67054;SHT31;53960;51.826;5.850;2023-12-22T08:40:07;8.81;94.26
67054;SHT31;53960;51.826;5.850;2023-12-22T08:42:32;8.79;94.70
67054;SHT31;53960;51.826;5.850;2023-12-22T08:44:58;8.84;95.07
67054;SHT31;53960;51.826;5.850;2023-12-22T08:47:23;8.75;95.46
67054;SHT31;53960;51.826;5.850;2023-12-22T08:49:49;8.81;95.17
67054;SHT31;53960;51.826;5.850;2023-12-22T08:52:14;8.75;95.82
67054;SHT31;53960;51.826;5.850;2023-12-22T08:54:39;8.67;95.68
67054;SHT31;53960;51.826;5.850;2023-12-22T08:57:05;8.63;95.70
67054;SHT31;53960;51.826;5.850;2023-12-22T08:59:30;8.58;96.07
67054;SHT31;53960;51.826;5.850;2023-12-22T09:01:55;8.60;96.34
67054;SHT31;53960;51.826;5.850;2023-12-22T09:04:21;8.46;97.10
67054;SHT31;53960;51.826;5.850;2023-12-22T09:06:48;8.40;97.69
67054;SHT31;53960;51.826;5.850;2023-12-22T09:09:13;8.44;97.94
67054;SHT31;53960;51.826;5.850;2023-12-22T09:11:39;8.41;98.39
67054;SHT31;53960;51.826;5.850;2023-12-22T09:14:08;8.40;98.37
67054;SHT31;53960;51.826;5.850;2023-12-22T09:16:35;8.38;98.57
67054;SHT31;53960;51.826;5.850;2023-12-22T09:19:00;8.37;98.83
67054;SHT31;53960;51.826;5.850;2023-12-22T09:21:26;8.50;98.61
67054;SHT31;53960;51.826;5.850;2023-12-22T09:23:51;8.55;98.76
67054;SHT31;53960;51.826;5.850;2023-12-22T09:26:16;8.50;98.86
67054;SHT31;53960;51.826;5.850;2023-12-22T09:28:43;8.63;98.95
67054;SHT31;53960;51.826;5.850;2023-12-22T09:31:09;8.63;99.20
67054;SHT31;53960;51.826;5.850;2023-12-22T09:33:35;8.72;99.09
67054;SHT31;53960;51.826;5.850;2023-12-22T09:36:01;8.82;99.02
67054;SHT31;53960;51.826;5.850;2023-12-22T09:38:26;8.78;99.18
67054;SHT31;53960;51.826;5.850;2023-12-22T09:40:53;8.81;99.43
67054;SHT31;53960;51.826;5.850;2023-12-22T09:43:19;8.84;99.63
67054;SHT31;53960;51.826;5.850;2023-12-22T09:45:52;8.81;99.87
67054;SHT31;53960;51.826;5.850;2023-12-22T09:48:22;8.91;99.71
67054;SHT31;53960;51.826;5.850;2023-12-22T09:50:54;8.82;99.76
67054;SHT31;53960;51.826;5.850;2023-12-22T09:53:20;8.82;99.81
67054;SHT31;53960;51.826;5.850;2023-12-22T09:55:46;8.86;99.83
67054;SHT31;53960;51.826;5.850;2023-12-22T09:58:13;8.88;99.90
67054;SHT31;53960;51.826;5.850;2023-12-22T10:00:39;8.96;99.60
67054;SHT31;53960;51.826;5.850;2023-12-22T10:03:09;8.95;99.68
67054;SHT31;53960;51.826;5.850;2023-12-22T10:05:35;9.02;99.38
67054;SHT31;53960;51.826;5.850;2023-12-22T10:08:02;9.12;99.05
67054;SHT31;53960;51.826;5.850;2023-12-22T10:10:30;9.20;98.71
67054;SHT31;53960;51.826;5.850;2023-12-22T10:12:58;9.18;98.82
67054;SHT31;53960;51.826;5.850;2023-12-22T10:15:24;9.26;98.84
67054;SHT31;53960;51.826;5.850;2023-12-22T10:17:50;9.22;99.04
67054;SHT31;53960;51.826;5.850;2023-12-22T10:20:16;9.33;98.71
67054;SHT31;53960;51.826;5.850;2023-12-22T10:22:42;9.42;98.27
67054;SHT31;53960;51.826;5.850;2023-12-22T10:25:08;9.42;98.46
67054;SHT31;53960;51.826;5.850;2023-12-22T10:27:35;9.43;98.63
67054;SHT31;53960;51.826;5.850;2023-12-22T10:30:02;9.50;98.08
67054;SHT31;53960;51.826;5.850;2023-12-22T10:32:28;9.50;97.97
67054;SHT31;53960;51.826;5.850;2023-12-22T10:34:54;9.58;97.72
67054;SHT31;53960;51.826;5.850;2023-12-22T10:37:20;9.66;97.29
67054;SHT31;53960;51.826;5.850;2023-12-22T10:39:46;9.66;97.55
67054;SHT31;53960;51.826;5.850;2023-12-22T10:42:14;9.69;97.43
67054;SHT31;53960;51.826;5.850;2023-12-22T10:44:40;9.69;97.36
67054;SHT31;53960;51.826;5.850;2023-12-22T10:47:06;9.75;97.11
67054;SHT31;53960;51.826;5.850;2023-12-22T10:49:32;9.84;96.69
67054;SHT31;53960;51.826;5.850;2023-12-22T10:51:59;9.85;96.80
67054;SHT31;53960;51.826;5.850;2023-12-22T10:54:24;9.83;96.43
67054;SHT31;53960;51.826;5.850;2023-12-22T10:56:49;9.90;96.25
67054;SHT31;53960;51.826;5.850;2023-12-22T10:59:23;9.94;95.95
67054;SHT31;53960;51.826;5.850;2023-12-22T11:01:51;9.95;96.17
67054;SHT31;53960;51.826;5.850;2023-12-22T11:04:18;9.93;96.61
67054;SHT31;53960;51.826;5.850;2023-12-22T11:06:47;9.90;97.27
67054;SHT31;53960;51.826;5.850;2023-12-22T11:09:16;9.80;97.58
67054;SHT31;53960;51.826;5.850;2023-12-22T11:11:42;9.84;97.19
67054;SHT31;53960;51.826;5.850;2023-12-22T11:14:07;9.85;97.21
67054;SHT31;53960;51.826;5.850;2023-12-22T11:16:34;9.91;96.95
67054;SHT31;53960;51.826;5.850;2023-12-22T11:19:01;9.94;96.80
67054;SHT31;53960;51.826;5.850;2023-12-22T11:21:27;9.98;96.59
67054;SHT31;53960;51.826;5.850;2023-12-22T11:23:53;9.99;96.33
67054;SHT31;53960;51.826;5.850;2023-12-22T11:26:20;10.01;96.35
67054;SHT31;53960;51.826;5.850;2023-12-22T11:28:47;10.02;96.28
67054;SHT31;53960;51.826;5.850;2023-12-22T11:31:13;10.01;96.39
67054;SHT31;53960;51.826;5.850;2023-12-22T11:33:46;9.99;96.69
67054;SHT31;53960;51.826;5.850;2023-12-22T11:36:12;10.04;96.49
67054;SHT31;53960;51.826;5.850;2023-12-22T11:38:40;10.06;95.78
67054;SHT31;53960;51.826;5.850;2023-12-22T11:41:06;9.98;96.09
67054;SHT31;53960;51.826;5.850;2023-12-22T11:43:33;10.02;95.87
67054;SHT31;53960;51.826;5.850;2023-12-22T11:46:03;10.08;95.37
67054;SHT31;53960;51.826;5.850;2023-12-22T11:48:29;10.11;95.50
67054;SHT31;53960;51.826;5.850;2023-12-22T11:50:55;10.08;95.37
67054;SHT31;53960;51.826;5.850;2023-12-22T11:53:21;10.16;95.35
67054;SHT31;53960;51.826;5.850;2023-12-22T11:56:04;10.15;95.61
67054;SHT31;53960;51.826;5.850;2023-12-22T11:58:44;10.15;95.42
67054;SHT31;53960;51.826;5.850;2023-12-22T12:01:17;10.16;94.85
67054;SHT31;53960;51.826;5.850;2023-12-22T12:03:52;10.21;94.21
67054;SHT31;53960;51.826;5.850;2023-12-22T12:09:00;10.18;93.71
67054;SHT31;53960;51.826;5.850;2023-12-22T12:14:29;10.06;94.62
67054;SHT31;53960;51.826;5.850;2023-12-22T12:17:09;10.01;94.92
67054;SHT31;53960;51.826;5.850;2023-12-22T12:19:37;9.98;95.37
67054;SHT31;53960;51.826;5.850;2023-12-22T12:22:03;9.95;95.64
67054;SHT31;53960;51.826;5.850;2023-12-22T12:24:28;9.98;95.63
67054;SHT31;53960;51.826;5.850;2023-12-22T12:26:54;9.98;95.97
67054;SHT31;53960;51.826;5.850;2023-12-22T12:29:20;10.05;95.71
67054;SHT31;53960;51.826;5.850;2023-12-22T12:31:46;9.99;96.00
67054;SHT31;53960;51.826;5.850;2023-12-22T12:34:11;10.04;96.00
67054;SHT31;53960;51.826;5.850;2023-12-22T12:36:39;10.09;95.52
67054;SHT31;53960;51.826;5.850;2023-12-22T12:39:07;10.14;95.51
67054;SHT31;53960;51.826;5.850;2023-12-22T12:41:36;10.19;94.87
67054;SHT31;53960;51.826;5.850;2023-12-22T12:44:03;10.19;95.12
67054;SHT31;53960;51.826;5.850;2023-12-22T12:49:06;10.28;95.13
67054;SHT31;53960;51.826;5.850;2023-12-22T12:52:00;10.34;93.98
67054;SHT31;53960;51.826;5.850;2023-12-22T12:54:26;10.36;94.08
67054;SHT31;53960;51.826;5.850;2023-12-22T12:56:52;10.38;94.39
67054;SHT31;53960;51.826;5.850;2023-12-22T12:59:17;10.35;94.17
67054;SHT31;53960;51.826;5.850;2023-12-22T13:01:45;10.34;94.75
67054;SHT31;53960;51.826;5.850;2023-12-22T13:04:11;10.26;95.40
67054;SHT31;53960;51.826;5.850;2023-12-22T13:06:50;10.16;96.13
67054;SHT31;53960;51.826;5.850;2023-12-22T13:09:17;10.12;96.29
67054;SHT31;53960;51.826;5.850;2023-12-22T13:11:43;10.11;96.43
67054;SHT31;53960;51.826;5.850;2023-12-22T13:14:11;10.04;96.81
67054;SHT31;53960;51.826;5.850;2023-12-22T13:16:38;10.02;97.30
67054;SHT31;53960;51.826;5.850;2023-12-22T13:19:04;10.06;96.10
67054;SHT31;53960;51.826;5.850;2023-12-22T13:21:30;10.16;96.02
67054;SHT31;53960;51.826;5.850;2023-12-22T13:26:34;10.24;94.79
67054;SHT31;53960;51.826;5.850;2023-12-22T13:29:00;10.26;94.19
67054;SHT31;53960;51.826;5.850;2023-12-22T13:31:25;10.25;94.77
67054;SHT31;53960;51.826;5.850;2023-12-22T13:33:52;10.31;94.03
67054;SHT31;53960;51.826;5.850;2023-12-22T13:36:17;10.34;93.81
67054;SHT31;53960;51.826;5.850;2023-12-22T13:38:49;10.41;92.92
67054;SHT31;53960;51.826;5.850;2023-12-22T13:41:17;10.42;92.75
67054;SHT31;53960;51.826;5.850;2023-12-22T13:43:43;10.43;92.64
67054;SHT31;53960;51.826;5.850;2023-12-22T13:46:14;10.45;93.16
67054;SHT31;53960;51.826;5.850;2023-12-22T13:48:40;10.45;93.44
67054;SHT31;53960;51.826;5.850;2023-12-22T13:51:06;10.50;92.80
67054;SHT31;53960;51.826;5.850;2023-12-22T13:53:31;10.46;92.83
67054;SHT31;53960;51.826;5.850;2023-12-22T13:55:58;10.48;93.04
67054;SHT31;53960;51.826;5.850;2023-12-22T13:58:23;10.50;92.95
67054;SHT31;53960;51.826;5.850;2023-12-22T14:00:50;10.50;93.05
67054;SHT31;53960;51.826;5.850;2023-12-22T14:03:15;10.52;92.62
67054;SHT31;53960;51.826;5.850;2023-12-22T14:05:48;10.53;92.54
67054;SHT31;53960;51.826;5.850;2023-12-22T14:08:14;10.50;92.59
67054;SHT31;53960;51.826;5.850;2023-12-22T14:10:46;10.55;92.43
67054;SHT31;53960;51.826;5.850;2023-12-22T14:13:14;10.53;92.74
67054;SHT31;53960;51.826;5.850;2023-12-22T14:15:43;10.49;93.06
67054;SHT31;53960;51.826;5.850;2023-12-22T14:18:10;10.49;93.54
67054;SHT31;53960;51.826;5.850;2023-12-22T14:20:35;10.45;94.27
67054;SHT31;53960;51.826;5.850;2023-12-22T14:23:01;10.39;94.97
67054;SHT31;53960;51.826;5.850;2023-12-22T14:25:26;10.39;94.79
67054;SHT31;53960;51.826;5.850;2023-12-22T14:27:52;10.35;95.53
67054;SHT31;53960;51.826;5.850;2023-12-22T14:30:25;10.25;95.87
67054;SHT31;53960;51.826;5.850;2023-12-22T14:32:50;10.28;95.58
67054;SHT31;53960;51.826;5.850;2023-12-22T14:35:16;10.25;95.68
67054;SHT31;53960;51.826;5.850;2023-12-22T14:37:41;10.29;95.61
67054;SHT31;53960;51.826;5.850;2023-12-22T14:40:08;10.29;95.40
67054;SHT31;53960;51.826;5.850;2023-12-22T14:42:34;10.28;95.67
67054;SHT31;53960;51.826;5.850;2023-12-22T14:44:59;10.26;95.44
67054;SHT31;53960;51.826;5.850;2023-12-22T14:47:26;10.26;95.10
67054;SHT31;53960;51.826;5.850;2023-12-22T14:49:52;10.38;94.26
67054;SHT31;53960;51.826;5.850;2023-12-22T14:52:17;10.35;94.69
67054;SHT31;53960;51.826;5.850;2023-12-22T14:54:42;10.42;94.05
67054;SHT31;53960;51.826;5.850;2023-12-22T14:57:08;10.46;93.21
67054;SHT31;53960;51.826;5.850;2023-12-22T14:59:34;10.48;93.20
67054;SHT31;53960;51.826;5.850;2023-12-22T15:01:59;10.48;93.17
67054;SHT31;53960;51.826;5.850;2023-12-22T15:04:24;10.49;93.44
67054;SHT31;53960;51.826;5.850;2023-12-22T15:06:50;10.50;92.65
67054;SHT31;53960;51.826;5.850;2023-12-22T15:09:17;10.50;92.86
67054;SHT31;53960;51.826;5.850;2023-12-22T15:11:45;10.49;92.98
67054;SHT31;53960;51.826;5.850;2023-12-22T15:14:11;10.48;93.49
67054;SHT31;53960;51.826;5.850;2023-12-22T15:16:41;10.43;93.77
67054;SHT31;53960;51.826;5.850;2023-12-22T15:19:13;10.43;94.05
67054;SHT31;53960;51.826;5.850;2023-12-22T15:21:39;10.34;94.78
67054;SHT31;53960;51.826;5.850;2023-12-22T15:24:05;10.29;95.40
67054;SHT31;53960;51.826;5.850;2023-12-22T15:26:31;10.31;94.78
67054;SHT31;53960;51.826;5.850;2023-12-22T15:28:59;10.31;94.82
67054;SHT31;53960;51.826;5.850;2023-12-22T15:31:24;10.28;95.20
67054;SHT31;53960;51.826;5.850;2023-12-22T15:33:50;10.24;95.60
67054;SHT31;53960;51.826;5.850;2023-12-22T15:36:19;10.25;95.75
67054;SHT31;53960;51.826;5.850;2023-12-22T15:38:48;10.26;95.42
67054;SHT31;53960;51.826;5.850;2023-12-22T15:41:13;10.31;94.76
67054;SHT31;53960;51.826;5.850;2023-12-22T15:43:39;10.31;94.70
67054;SHT31;53960;51.826;5.850;2023-12-22T15:46:05;10.32;94.67
67054;SHT31;53960;51.826;5.850;2023-12-22T15:48:33;10.36;94.16
67054;SHT31;53960;51.826;5.850;2023-12-22T15:51:04;10.35;94.50
67054;SHT31;53960;51.826;5.850;2023-12-22T15:53:30;10.36;94.32